createdAt,value
2017-12-23T00:01:27.898Z,97490.56
2017-12-23T00:03:55.448Z,97493.00
2017-12-23T00:06:23.018Z,97483.38
2017-12-23T00:08:50.576Z,97486.05
2017-12-23T00:11:18.161Z,97485.44
2017-12-23T00:13:45.745Z,97483.70
2017-12-23T00:16:13.319Z,97482.36
2017-12-23T00:18:40.878Z,97485.06
2017-12-23T00:21:08.873Z,97477.62
2017-12-23T00:23:36.489Z,97484.17
2017-12-23T00:26:04.043Z,97485.58
2017-12-23T00:28:31.604Z,97481.27
2017-12-23T00:30:59.165Z,97481.88
2017-12-23T00:33:26.736Z,97477.05
2017-12-23T00:35:54.353Z,97485.06
2017-12-23T00:38:21.917Z,97476.16
2017-12-23T00:40:49.505Z,97478.37
2017-12-23T00:43:17.085Z,97474.17
2017-12-23T00:45:44.655Z,97479.77
2017-12-23T00:48:12.252Z,97470.63
2017-12-23T00:50:40.730Z,97474.09
2017-12-23T00:53:08.433Z,97479.34
2017-12-23T00:55:35.985Z,97486.28
2017-12-23T00:58:03.549Z,97486.20
2017-12-23T01:00:31.120Z,97483.83
2017-12-23T01:02:58.655Z,97467.58
2017-12-23T01:05:26.330Z,97475.02
2017-12-23T01:07:53.873Z,97467.39
2017-12-23T01:10:21.422Z,97472.24
2017-12-23T01:12:48.994Z,97473.19
2017-12-23T01:15:16.590Z,97468.29
2017-12-23T01:17:44.190Z,97464.84
2017-12-23T01:20:11.812Z,97465.13
2017-12-23T01:22:39.389Z,97466.70
2017-12-23T01:25:07.042Z,97454.18
2017-12-23T01:27:34.625Z,97465.42
2017-12-23T01:30:02.203Z,97463.53
2017-12-23T01:32:29.783Z,97463.27
2017-12-23T01:34:57.365Z,97454.66
2017-12-23T01:37:24.913Z,97451.12
2017-12-23T01:39:52.507Z,97444.34
2017-12-23T01:42:20.106Z,97442.92
2017-12-23T01:44:47.687Z,97445.66
2017-12-23T01:47:15.288Z,97450.58
2017-12-23T01:49:42.852Z,97450.84
2017-12-23T01:52:10.616Z,97446.78
2017-12-23T01:54:38.201Z,97445.89
2017-12-23T01:57:05.937Z,97445.05
2017-12-23T01:59:33.470Z,97433.99
2017-12-23T02:02:01.066Z,97425.95
2017-12-23T02:04:28.620Z,97418.48
2017-12-23T02:06:56.175Z,97416.80
2017-12-23T02:09:23.767Z,97418.43
2017-12-23T02:11:51.341Z,97411.42
2017-12-23T02:14:18.893Z,97408.40
2017-12-23T02:16:46.431Z,97401.09
2017-12-23T02:19:14.449Z,97406.12
2017-12-23T02:21:42.036Z,97403.48
2017-12-23T02:24:09.737Z,97403.13
2017-12-23T02:26:37.295Z,97403.80
2017-12-23T02:29:04.888Z,97410.34
2017-12-23T02:31:32.485Z,97400.61
2017-12-23T02:34:00.018Z,97384.94
2017-12-23T02:36:27.577Z,97385.69
2017-12-23T02:38:55.149Z,97386.23
2017-12-23T02:41:22.705Z,97379.57
2017-12-23T02:43:50.261Z,97379.09
2017-12-23T02:46:17.834Z,97369.06
2017-12-23T02:48:45.800Z,97365.20
2017-12-23T02:51:13.847Z,97362.42
2017-12-23T02:53:41.412Z,97364.23
2017-12-23T02:56:08.987Z,97349.05
2017-12-23T02:58:36.601Z,97353.88
2017-12-23T03:01:04.180Z,97352.38
2017-12-23T03:03:31.752Z,97345.95
2017-12-23T03:05:59.327Z,97338.05
2017-12-23T03:08:26.897Z,97327.16
2017-12-23T03:10:54.437Z,97316.39
2017-12-23T03:13:22.080Z,97324.67
2017-12-23T03:15:49.634Z,97314.60
2017-12-23T03:18:17.190Z,97319.48
2017-12-23T03:20:44.771Z,97301.52
2017-12-23T03:23:12.593Z,97291.55
2017-12-23T03:25:40.242Z,97286.41
2017-12-23T03:28:07.814Z,97284.59
2017-12-23T03:30:35.384Z,97301.63
2017-12-23T03:33:02.969Z,97284.94
2017-12-23T03:35:30.700Z,97282.41
2017-12-23T03:37:58.254Z,97286.92
2017-12-23T03:40:25.849Z,97277.25
2017-12-23T03:42:53.735Z,97280.70
2017-12-23T03:45:21.804Z,97265.93
2017-12-23T03:47:49.381Z,97257.45
2017-12-23T03:50:17.027Z,97270.99
2017-12-23T03:52:44.576Z,97265.80
2017-12-23T03:55:12.469Z,97272.56
2017-12-23T03:57:40.060Z,97284.41
2017-12-23T04:00:07.953Z,97267.32
2017-12-23T04:02:35.504Z,97290.14
2017-12-23T04:05:03.078Z,97291.06
2017-12-23T04:07:31.245Z,97299.63
2017-12-23T04:09:58.773Z,97309.16
2017-12-23T04:12:26.341Z,97294.60
2017-12-23T04:14:53.881Z,97302.85
2017-12-23T04:17:21.451Z,97293.30
2017-12-23T04:19:49.026Z,97299.89
2017-12-23T04:22:16.617Z,97288.17
2017-12-23T04:24:44.155Z,97295.99
2017-12-23T04:27:11.952Z,97286.79
2017-12-23T04:29:39.511Z,97275.14
2017-12-23T04:32:07.072Z,97277.75
2017-12-23T04:34:34.620Z,97282.95
2017-12-23T04:37:02.210Z,97285.37
2017-12-23T04:39:30.314Z,97286.16
2017-12-23T04:41:57.870Z,97297.34
2017-12-23T04:44:25.438Z,97285.48
2017-12-23T04:46:53.045Z,97288.13
2017-12-23T04:49:20.624Z,97290.51
2017-12-23T04:51:48.168Z,97284.16
2017-12-23T04:54:15.738Z,97280.40
2017-12-23T04:56:43.280Z,97285.91
2017-12-23T04:59:10.836Z,97298.62
2017-12-23T05:01:38.408Z,97306.59
2017-12-23T05:04:05.955Z,97320.86
2017-12-23T05:06:33.496Z,97327.16
2017-12-23T05:09:01.098Z,97326.84
2017-12-23T05:11:28.941Z,97311.73
2017-12-23T05:13:56.572Z,97305.33
2017-12-23T05:16:24.183Z,97298.07
2017-12-23T05:18:51.731Z,97301.82
2017-12-23T05:21:19.296Z,97296.99
2017-12-23T05:23:46.911Z,97295.05
2017-12-23T05:26:14.511Z,97311.43
2017-12-23T05:28:42.065Z,97305.84
2017-12-23T05:31:10.322Z,97320.73
2017-12-23T05:33:37.890Z,97332.45
2017-12-23T05:36:05.436Z,97331.40
2017-12-23T05:38:33.021Z,97343.23
2017-12-23T05:41:00.545Z,97353.50
2017-12-23T05:43:28.093Z,97349.27
2017-12-23T05:45:55.697Z,97338.27
2017-12-23T05:48:23.270Z,97336.88
2017-12-23T05:50:50.827Z,97326.41
2017-12-23T05:53:18.398Z,97317.52
2017-12-23T05:55:45.949Z,97307.77
2017-12-23T05:58:13.522Z,97314.44
2017-12-23T06:00:42.853Z,97316.38
2017-12-23T06:03:10.680Z,97305.33
2017-12-23T06:05:38.262Z,97318.03
2017-12-23T06:08:05.837Z,97304.85
2017-12-23T06:10:33.379Z,97302.37
2017-12-23T06:13:00.933Z,97311.37
2017-12-23T06:15:28.545Z,97324.92
2017-12-23T06:17:56.091Z,97323.03
2017-12-23T06:20:23.638Z,97333.08
2017-12-23T06:22:51.221Z,97328.42
2017-12-23T06:25:18.774Z,97324.12
2017-12-23T06:27:46.308Z,97317.36
2017-12-23T06:30:13.901Z,97313.19
2017-12-23T06:32:41.439Z,97304.66
2017-12-23T06:35:09.181Z,97304.83
2017-12-23T06:37:36.932Z,97290.09
2017-12-23T06:40:04.541Z,97281.78
2017-12-23T06:42:32.100Z,97286.86
2017-12-23T06:44:59.857Z,97292.67
2017-12-23T06:47:27.509Z,97268.12
2017-12-23T06:49:55.102Z,97277.42
2017-12-23T06:52:23.719Z,97291.39
2017-12-23T06:54:51.280Z,97293.14
2017-12-23T06:57:18.865Z,97295.50
2017-12-23T06:59:46.496Z,97293.50
2017-12-23T07:02:14.068Z,97290.49
2017-12-23T07:04:41.615Z,97287.45
2017-12-23T07:07:15.288Z,97291.47
2017-12-23T07:09:43.645Z,97304.47
2017-12-23T07:15:01.377Z,97331.96
2017-12-23T07:17:28.969Z,97314.98
2017-12-23T07:19:56.539Z,97318.84
2017-12-23T07:22:24.149Z,97315.09
2017-12-23T07:24:53.668Z,97298.14
2017-12-23T07:27:21.256Z,97298.38
2017-12-23T07:29:49.566Z,97291.70
2017-12-23T07:32:17.167Z,97304.06
2017-12-23T07:34:44.754Z,97312.23
2017-12-23T07:37:12.654Z,97318.09
2017-12-23T07:39:40.342Z,97302.23
2017-12-23T07:42:07.972Z,97306.79
2017-12-23T07:44:35.521Z,97309.12
2017-12-23T07:47:03.119Z,97308.98
2017-12-23T07:49:30.732Z,97306.03
2017-12-23T07:51:58.278Z,97310.92
2017-12-23T07:54:25.849Z,97304.28
2017-12-23T07:56:53.456Z,97309.51
2017-12-23T07:59:21.116Z,97293.20
2017-12-23T08:01:48.669Z,97304.03
2017-12-23T08:04:16.377Z,97302.67
2017-12-23T08:06:43.941Z,97298.94
2017-12-23T08:09:11.556Z,97301.49
2017-12-23T08:11:39.144Z,97314.69
2017-12-23T08:14:06.679Z,97310.69
2017-12-23T08:16:34.239Z,97320.34
2017-12-23T08:19:01.820Z,97312.30
2017-12-23T08:21:29.353Z,97308.08
2017-12-23T08:23:56.943Z,97321.55
2017-12-23T08:26:24.616Z,97334.48
2017-12-23T08:28:52.173Z,97328.49
2017-12-23T08:31:19.757Z,97309.47
2017-12-23T08:33:47.330Z,97306.40
2017-12-23T08:36:14.925Z,97313.13
2017-12-23T08:38:42.456Z,97308.23
2017-12-23T08:41:10.364Z,97300.33
2017-12-23T08:43:37.986Z,97304.63
2017-12-23T08:46:05.536Z,97315.36
2017-12-23T08:48:33.136Z,97317.98
2017-12-23T08:51:00.679Z,97309.50
2017-12-23T08:53:28.220Z,97306.12
2017-12-23T08:55:55.812Z,97322.64
2017-12-23T08:58:23.367Z,97322.08
2017-12-23T09:00:50.910Z,97323.22
2017-12-23T09:03:18.515Z,97311.55
2017-12-23T09:05:46.051Z,97323.20
2017-12-23T09:08:13.606Z,97319.37
2017-12-23T09:10:41.176Z,97318.91
2017-12-23T09:13:08.786Z,97322.51
2017-12-23T09:15:36.398Z,97323.34
2017-12-23T09:18:04.169Z,97314.17
2017-12-23T09:20:31.730Z,97331.16
2017-12-23T09:22:59.274Z,97332.06
2017-12-23T09:25:26.911Z,97326.69
2017-12-23T09:27:54.463Z,97322.38
2017-12-23T09:30:25.134Z,97340.42
2017-12-23T09:32:52.687Z,97342.88
2017-12-23T09:35:20.238Z,97336.51
2017-12-23T09:37:47.807Z,97335.19
2017-12-23T09:40:15.341Z,97348.14
2017-12-23T09:42:42.892Z,97343.69
2017-12-23T09:45:10.718Z,97343.23
2017-12-23T09:47:38.284Z,97338.52
2017-12-23T09:50:05.823Z,97343.80
2017-12-23T09:52:33.406Z,97335.53
2017-12-23T09:55:00.964Z,97339.83
2017-12-23T09:57:36.310Z,97332.22
2017-12-23T10:00:04.406Z,97330.95
2017-12-23T10:02:31.937Z,97318.35
2017-12-23T10:04:59.509Z,97306.39
2017-12-23T10:07:27.097Z,97297.78
2017-12-23T10:09:54.689Z,97302.59
2017-12-23T10:12:22.233Z,97299.62
2017-12-23T10:14:49.774Z,97306.10
2017-12-23T10:17:17.397Z,97300.51
2017-12-23T10:19:44.934Z,97290.69
2017-12-23T10:22:12.507Z,97290.44
2017-12-23T10:24:40.298Z,97297.80
2017-12-23T10:27:08.075Z,97288.59
2017-12-23T10:29:35.604Z,97282.24
2017-12-23T10:32:03.198Z,97284.51
2017-12-23T10:34:30.761Z,97286.95
2017-12-23T10:36:58.341Z,97273.30
2017-12-23T10:39:26.734Z,97258.44
2017-12-23T10:41:54.277Z,97260.20
2017-12-23T10:44:21.962Z,97275.06
2017-12-23T10:46:49.508Z,97270.28
2017-12-23T10:49:17.096Z,97261.89
2017-12-23T10:51:44.657Z,97253.86
2017-12-23T10:54:12.269Z,97256.27
2017-12-23T10:56:40.025Z,97249.36
2017-12-23T10:59:07.602Z,97253.78
2017-12-23T11:01:35.475Z,97256.59
2017-12-23T11:04:03.036Z,97251.91
2017-12-23T11:06:30.575Z,97254.04
2017-12-23T11:08:58.148Z,97250.20
2017-12-23T11:11:25.714Z,97240.72
2017-12-23T11:13:53.947Z,97245.11
2017-12-23T11:16:21.525Z,97249.59
2017-12-23T11:18:49.124Z,97248.74
2017-12-23T11:21:17.713Z,97242.56
2017-12-23T11:23:45.601Z,97235.14
2017-12-23T11:26:13.147Z,97213.51
2017-12-23T11:28:40.740Z,97228.72
2017-12-23T11:31:09.029Z,97218.44
2017-12-23T11:33:36.635Z,97230.00
2017-12-23T11:36:06.326Z,97223.36
2017-12-23T11:38:34.623Z,97233.78
2017-12-23T11:41:02.882Z,97229.44
2017-12-23T11:43:30.569Z,97226.87
2017-12-23T11:45:58.141Z,97214.89
2017-12-23T11:48:25.728Z,97216.45
2017-12-23T11:50:53.350Z,97210.65
2017-12-23T11:53:20.903Z,97213.09
2017-12-23T11:55:48.531Z,97209.22
2017-12-23T12:01:06.241Z,97205.72
2017-12-23T12:03:33.802Z,97198.36
2017-12-23T12:06:01.405Z,97187.82
2017-12-23T12:08:28.981Z,97191.05
2017-12-23T12:10:56.527Z,97179.36
2017-12-23T12:13:24.212Z,97185.14
2017-12-23T12:15:51.746Z,97166.93
2017-12-23T12:18:19.301Z,97154.52
2017-12-23T12:20:46.860Z,97150.10
2017-12-23T12:23:14.426Z,97150.86
2017-12-23T12:25:42.005Z,97152.21
2017-12-23T12:28:09.601Z,97142.45
2017-12-23T12:30:37.144Z,97136.66
2017-12-23T12:33:04.891Z,97133.19
2017-12-23T12:35:32.659Z,97135.69
2017-12-23T12:38:00.194Z,97144.59
2017-12-23T12:40:27.797Z,97134.55
2017-12-23T12:42:55.389Z,97132.52
2017-12-23T12:45:22.994Z,97136.70
2017-12-23T12:47:50.565Z,97144.70
2017-12-23T12:50:18.270Z,97137.95
2017-12-23T12:52:45.849Z,97123.08
2017-12-23T12:55:13.596Z,97145.77
2017-12-23T12:57:41.170Z,97134.28
2017-12-23T13:00:08.738Z,97132.08
2017-12-23T13:02:36.308Z,97140.42
2017-12-23T13:05:03.890Z,97136.31
2017-12-23T13:07:31.470Z,97134.39
2017-12-23T13:09:59.033Z,97133.89
2017-12-23T13:12:26.568Z,97132.88
2017-12-23T13:14:54.174Z,97139.89
2017-12-23T13:17:21.765Z,97135.02
2017-12-23T13:19:49.344Z,97146.64
2017-12-23T13:22:16.977Z,97155.39
2017-12-23T13:24:44.529Z,97140.79
2017-12-23T13:27:12.380Z,97135.98
2017-12-23T13:29:39.933Z,97133.14
2017-12-23T13:32:07.522Z,97132.44
2017-12-23T13:34:35.073Z,97125.19
2017-12-23T13:37:02.680Z,97127.91
2017-12-23T13:39:30.728Z,97126.45
2017-12-23T13:41:58.373Z,97130.14
2017-12-23T13:44:25.945Z,97123.82
2017-12-23T13:46:53.493Z,97125.61
2017-12-23T13:49:21.051Z,97125.81
2017-12-23T13:51:48.631Z,97124.77
2017-12-23T13:54:16.319Z,97126.46
2017-12-23T13:56:43.865Z,97119.39
2017-12-23T13:59:11.486Z,97125.16
2017-12-23T14:01:39.102Z,97131.56
2017-12-23T14:04:06.680Z,97131.67
2017-12-23T14:06:34.248Z,97130.03
2017-12-23T14:09:01.869Z,97141.19
2017-12-23T14:11:29.533Z,97121.72
2017-12-23T14:13:57.133Z,97129.81
2017-12-23T14:16:24.717Z,97117.89
2017-12-23T14:18:52.260Z,97128.80
2017-12-23T14:21:20.122Z,97122.81
2017-12-23T14:23:47.665Z,97112.09
2017-12-23T14:26:15.576Z,97106.19
2017-12-23T14:28:43.164Z,97102.83
2017-12-23T14:31:11.302Z,97085.78
2017-12-23T14:33:39.007Z,97099.55
2017-12-23T14:36:06.594Z,97098.41
2017-12-23T14:38:34.184Z,97092.08
2017-12-23T14:41:01.814Z,97087.72
2017-12-23T14:43:29.401Z,97095.18
2017-12-23T14:45:56.960Z,97089.17
2017-12-23T14:48:24.705Z,97084.33
2017-12-23T14:50:52.292Z,97088.98
2017-12-23T14:53:19.861Z,97087.48
2017-12-23T14:55:47.404Z,97093.77
2017-12-23T14:58:15.013Z,97096.40
2017-12-23T15:00:42.600Z,97082.44
2017-12-23T15:03:10.333Z,97096.58
2017-12-23T15:05:37.980Z,97096.30
2017-12-23T15:08:05.541Z,97102.09
2017-12-23T15:10:33.153Z,97100.30
2017-12-23T15:13:01.153Z,97091.55
2017-12-23T15:15:28.707Z,97083.81
2017-12-23T15:17:56.281Z,97097.23
2017-12-23T15:20:23.959Z,97093.44
2017-12-23T15:22:52.324Z,97088.23
2017-12-23T15:25:19.910Z,97095.78
2017-12-23T15:27:47.562Z,97105.16
2017-12-23T15:30:15.140Z,97113.06
2017-12-23T15:32:42.697Z,97114.97
2017-12-23T15:35:10.427Z,97114.00
2017-12-23T15:37:38.141Z,97124.44
2017-12-23T15:40:05.684Z,97104.56
2017-12-23T15:42:33.248Z,97081.75
2017-12-23T15:45:00.797Z,97086.80
2017-12-23T15:47:28.478Z,97079.65
2017-12-23T15:49:56.237Z,97070.91
2017-12-23T15:52:23.886Z,97096.37
2017-12-23T15:54:51.488Z,97072.94
2017-12-23T15:57:19.067Z,97088.94
2017-12-23T15:59:46.621Z,97104.05
2017-12-23T16:02:14.317Z,97088.91
2017-12-23T16:04:41.893Z,97094.37
2017-12-23T16:07:09.541Z,97061.91
2017-12-23T16:09:37.127Z,97059.00
2017-12-23T16:12:04.684Z,97052.98
2017-12-23T16:14:32.235Z,97054.78
2017-12-23T16:16:59.986Z,97051.97
2017-12-23T16:19:33.714Z,97054.05
2017-12-23T16:22:01.297Z,97050.69
2017-12-23T16:24:28.864Z,97036.13
2017-12-23T16:26:56.410Z,97030.95
2017-12-23T16:29:24.098Z,97032.72
2017-12-23T16:31:51.684Z,97039.80
2017-12-23T16:36:53.145Z,97036.13
2017-12-23T16:39:20.718Z,97010.84
2017-12-23T16:41:48.260Z,97019.05
2017-12-23T16:44:16.112Z,97026.93
2017-12-23T16:46:43.646Z,97015.75
2017-12-23T16:49:11.574Z,97017.21
2017-12-23T16:51:39.182Z,97004.96
2017-12-23T16:54:06.834Z,97011.56
2017-12-23T16:56:34.396Z,97026.37
2017-12-23T16:59:02.033Z,97025.87
2017-12-23T17:01:29.593Z,97019.72
2017-12-23T17:16:06.580Z,97003.58
2017-12-23T17:18:34.126Z,96997.86
2017-12-23T17:21:01.689Z,97008.80
2017-12-23T17:23:29.256Z,97004.64
2017-12-23T17:25:56.809Z,96991.47
2017-12-23T17:28:36.071Z,97004.23
2017-12-23T17:31:03.618Z,96980.44
2017-12-23T17:33:31.174Z,96992.09
2017-12-23T17:35:58.738Z,96986.66
2017-12-23T17:38:26.295Z,96992.17
2017-12-23T17:40:53.934Z,96979.28
2017-12-23T17:43:22.120Z,97000.36
2017-12-23T17:45:49.678Z,96998.80
2017-12-23T17:48:17.285Z,96981.30
2017-12-23T17:50:44.833Z,96977.23
2017-12-23T17:53:12.390Z,96972.50
2017-12-23T17:55:40.161Z,96965.48
2017-12-23T17:58:07.851Z,96979.45
2017-12-23T18:00:35.390Z,96978.56
2017-12-23T18:03:02.977Z,97006.48
2017-12-23T18:05:30.684Z,96965.38
2017-12-23T18:07:58.220Z,96964.57
2017-12-23T18:10:25.852Z,96957.23
2017-12-23T18:12:53.420Z,96963.50
2017-12-23T18:15:21.260Z,96935.71
2017-12-23T18:17:48.865Z,96968.44
2017-12-23T18:20:16.446Z,96977.44
2017-12-23T18:22:44.056Z,96964.50
2017-12-23T18:25:11.866Z,96988.64
2017-12-23T18:27:39.424Z,96976.25
2017-12-23T18:30:07.298Z,96993.79
2017-12-23T18:32:34.868Z,96983.84
2017-12-23T18:35:02.412Z,96998.73
2017-12-23T18:37:29.964Z,96991.55
2017-12-23T18:39:57.514Z,96987.03
2017-12-23T18:42:25.407Z,97004.05
2017-12-23T18:44:53.004Z,97010.45
2017-12-23T18:47:20.563Z,96977.11
2017-12-23T18:49:48.093Z,96999.18
2017-12-23T18:52:15.748Z,96992.05
2017-12-23T19:40:05.565Z,97039.70
2017-12-23T19:42:33.119Z,97040.88
2017-12-23T19:45:00.764Z,97043.60
2017-12-23T19:47:30.543Z,97056.02
2017-12-23T19:49:58.288Z,97050.73
2017-12-23T19:52:25.886Z,97053.14
2017-12-23T19:54:53.501Z,97049.73
2017-12-23T19:57:21.086Z,97042.58
2017-12-23T19:59:48.712Z,97044.63
2017-12-23T20:02:16.365Z,97047.33
2017-12-23T20:04:43.919Z,97039.53
2017-12-23T20:07:11.908Z,97036.89
2017-12-23T20:09:39.451Z,97037.13
2017-12-23T20:12:07.023Z,97055.27
2017-12-23T20:14:34.605Z,97051.97
2017-12-23T20:17:02.170Z,97059.83
2017-12-23T20:19:30.209Z,97064.27
2017-12-23T20:21:57.778Z,97064.02
2017-12-23T20:24:25.341Z,97063.70
2017-12-23T20:26:52.917Z,97059.09
2017-12-23T20:29:20.535Z,97064.25
2017-12-23T20:31:48.082Z,97053.72
2017-12-23T20:34:15.643Z,97064.77
2017-12-23T20:36:43.422Z,97058.16
2017-12-23T20:39:12.081Z,97101.21
2017-12-23T20:41:39.625Z,97097.07
2017-12-23T20:44:07.181Z,97103.41
2017-12-23T20:46:34.762Z,97096.48
2017-12-23T20:49:02.318Z,97102.67
2017-12-23T20:51:30.847Z,97098.68
2017-12-23T20:53:58.398Z,97080.11
2017-12-23T20:56:25.955Z,97097.66
2017-12-23T20:58:53.604Z,97098.89
2017-12-23T21:01:21.153Z,97077.73
2017-12-23T21:03:48.747Z,97100.30
2017-12-23T21:06:16.565Z,97101.70
2017-12-23T21:08:44.140Z,97103.58
2017-12-23T21:11:11.719Z,97104.02
2017-12-23T21:13:39.285Z,97111.22
2017-12-23T21:16:06.895Z,97132.00
2017-12-23T21:18:34.451Z,97128.40
2017-12-23T21:21:02.048Z,97141.64
2017-12-23T21:23:30.294Z,97133.34
2017-12-23T21:25:58.005Z,97153.78
2017-12-23T21:28:25.561Z,97148.16
2017-12-23T21:30:53.474Z,97141.56
2017-12-23T21:33:21.499Z,97150.08
2017-12-23T21:35:49.113Z,97135.00
2017-12-23T21:38:16.686Z,97136.27
2017-12-23T21:40:44.230Z,97135.59
2017-12-23T21:43:12.394Z,97124.02
2017-12-23T21:45:40.880Z,97130.05
2017-12-23T21:48:08.632Z,97122.91
2017-12-23T21:50:36.209Z,97149.71
2017-12-23T21:53:03.765Z,97145.09
2017-12-23T21:55:31.872Z,97127.99
2017-12-23T21:57:59.489Z,97126.21
2017-12-23T22:00:27.069Z,97122.19
2017-12-23T22:02:54.620Z,97130.63
2017-12-23T22:05:22.347Z,97124.77
2017-12-23T22:07:49.981Z,97124.66
2017-12-23T22:10:17.614Z,97129.84
2017-12-23T22:12:45.237Z,97127.58
2017-12-23T22:15:12.801Z,97124.27
2017-12-23T22:17:40.356Z,97119.94
2017-12-23T22:20:07.939Z,97107.96
2017-12-23T22:22:35.483Z,97115.62
2017-12-23T22:25:03.065Z,97127.05
2017-12-23T22:27:30.643Z,97115.25
2017-12-23T22:29:58.253Z,97119.36
2017-12-23T22:32:25.777Z,97103.80
2017-12-23T22:34:53.385Z,97104.58
2017-12-23T22:37:21.159Z,97096.59
2017-12-23T22:39:48.724Z,97108.08
2017-12-23T22:42:28.155Z,97131.30
2017-12-23T22:44:55.720Z,97117.30
2017-12-23T22:47:23.431Z,97123.96
2017-12-23T22:49:51.022Z,97126.63
2017-12-23T22:52:18.601Z,97107.84
2017-12-23T22:54:46.153Z,97108.77
2017-12-23T22:57:14.342Z,97104.08
2017-12-23T22:59:41.970Z,97122.67
2017-12-23T23:02:09.522Z,97125.13
2017-12-23T23:04:37.086Z,97118.47
2017-12-23T23:07:04.696Z,97115.49
2017-12-23T23:09:32.334Z,97125.11
2017-12-23T23:12:00.010Z,97105.88
2017-12-23T23:14:27.801Z,97104.73
2017-12-23T23:16:55.366Z,97099.30
2017-12-23T23:19:23.066Z,97104.75
2017-12-23T23:21:50.653Z,97109.77
2017-12-23T23:24:18.313Z,97090.23
2017-12-23T23:26:45.874Z,97088.27
2017-12-23T23:29:13.509Z,97086.92
2017-12-23T23:31:41.979Z,97122.05
2017-12-23T23:34:09.552Z,97081.74
2017-12-23T23:36:37.131Z,97081.34
2017-12-23T23:39:04.730Z,97059.69
2017-12-23T23:41:32.399Z,97047.89
2017-12-23T23:44:00.271Z,97067.40
2017-12-23T23:46:27.862Z,97062.83
2017-12-23T23:48:56.176Z,97045.38
2017-12-23T23:51:23.827Z,97048.75
2017-12-23T23:53:51.387Z,97050.19
2017-12-23T23:56:18.933Z,97068.42
2017-12-23T23:58:47.917Z,97066.86
